createdAt,value
2018-02-20T00:00:22.108Z,74.13
2018-02-20T00:00:48.217Z,74.28
2018-02-20T00:01:14.299Z,74.41
2018-02-20T00:01:40.403Z,74.32
2018-02-20T00:02:06.521Z,74.41
2018-02-20T00:02:32.630Z,74.47
2018-02-20T00:02:58.735Z,74.41
2018-02-20T00:03:24.834Z,74.09
2018-02-20T00:03:50.932Z,74.18
2018-02-20T00:04:17.032Z,74.28
2018-02-20T00:04:43.136Z,73.94
2018-02-20T00:05:09.235Z,73.99
2018-02-20T00:05:35.337Z,74.22
2018-02-20T00:06:01.452Z,74.03
2018-02-20T00:06:27.546Z,74.13
2018-02-20T00:06:53.650Z,74.03
2018-02-20T00:07:19.744Z,74.18
2018-02-20T00:07:45.843Z,73.94
2018-02-20T00:08:11.948Z,73.99
2018-02-20T00:08:38.047Z,74.03
2018-02-20T00:09:04.146Z,74.13
2018-02-20T00:09:30.255Z,74.03
2018-02-20T00:09:56.361Z,74.13
2018-02-20T00:10:22.455Z,74.13
2018-02-20T00:10:48.554Z,74.13
2018-02-20T00:11:14.662Z,74.13
2018-02-20T00:11:40.760Z,74.32
2018-02-20T00:12:06.865Z,74.22
2018-02-20T00:12:32.952Z,74.22
2018-02-20T00:12:59.071Z,74.13
2018-02-20T00:13:25.165Z,74.03
2018-02-20T00:13:51.292Z,74.32
2018-02-20T00:14:17.392Z,73.75
2018-02-20T00:14:43.484Z,73.65
2018-02-20T00:15:09.603Z,73.61
2018-02-20T00:15:35.725Z,73.52
2018-02-20T00:16:01.804Z,73.9
2018-02-20T00:16:27.905Z,74.51
2018-02-20T00:16:54.002Z,74.69
2018-02-20T00:17:20.107Z,74.66
2018-02-20T00:17:46.203Z,74.88
2018-02-20T00:18:12.298Z,74.28
2018-02-20T00:18:38.399Z,74.66
2018-02-20T00:19:04.496Z,74.51
2018-02-20T00:19:30.613Z,74.75
2018-02-20T00:19:56.708Z,74.75
2018-02-20T00:20:22.808Z,74.66
2018-02-20T00:20:48.911Z,75.13
2018-02-20T00:21:15.004Z,75.04
2018-02-20T00:21:41.124Z,74.66
2018-02-20T00:22:07.230Z,74.66
2018-02-20T00:22:33.329Z,74.95
2018-02-20T00:22:59.425Z,75.51
2018-02-20T00:23:25.528Z,75.32
2018-02-20T00:23:51.627Z,75.13
2018-02-20T00:24:17.722Z,75.32
2018-02-20T00:24:43.827Z,75.42
2018-02-20T00:25:09.924Z,75.79
2018-02-20T00:25:36.041Z,75.51
2018-02-20T00:26:02.123Z,75.42
2018-02-20T00:26:28.225Z,75.51
2018-02-20T00:26:54.320Z,75.42
2018-02-20T00:27:20.426Z,75.42
2018-02-20T00:27:46.521Z,75.6
2018-02-20T00:28:12.624Z,75.42
2018-02-20T00:28:38.722Z,75.6
2018-02-20T00:29:04.818Z,75.6
2018-02-20T00:29:30.924Z,75.42
2018-02-20T00:29:57.026Z,75.32
2018-02-20T00:30:23.122Z,75.6
2018-02-20T00:30:49.218Z,75.51
2018-02-20T00:31:15.323Z,75.79
2018-02-20T00:31:41.445Z,75.6
2018-02-20T00:32:07.541Z,75.13
2018-02-20T00:32:33.629Z,75.23
2018-02-20T00:32:59.733Z,75.23
2018-02-20T00:33:25.828Z,75.6
2018-02-20T00:33:51.948Z,75.32
2018-02-20T00:34:18.048Z,75.51
2018-02-20T00:34:44.150Z,75.42
2018-02-20T00:35:10.250Z,75.7
2018-02-20T00:35:36.351Z,75.98
2018-02-20T00:36:02.447Z,75.6
2018-02-20T00:36:28.550Z,76.08
2018-02-20T00:36:54.649Z,75.79
2018-02-20T00:37:20.754Z,76.65
2018-02-20T00:37:46.853Z,76.65
2018-02-20T00:38:12.947Z,76.55
2018-02-20T00:38:39.051Z,76.65
2018-02-20T00:39:05.145Z,76.74
2018-02-20T00:39:31.251Z,76.84
2018-02-20T00:39:57.348Z,76.74
2018-02-20T00:40:23.445Z,76.84
2018-02-20T00:40:49.548Z,76.74
2018-02-20T00:41:15.646Z,76.93
2018-02-20T00:41:41.757Z,76.74
2018-02-20T00:42:07.854Z,76.65
2018-02-20T00:42:33.955Z,77.03
2018-02-20T00:43:00.051Z,76.93
2018-02-20T00:43:26.154Z,76.74
2018-02-20T00:43:52.254Z,76.36
2018-02-20T00:44:18.350Z,76.46
2018-02-20T00:44:44.449Z,76.93
2018-02-20T00:45:10.553Z,76.74
2018-02-20T00:45:36.672Z,77.03
2018-02-20T00:46:02.762Z,76.93
2018-02-20T00:46:28.859Z,76.74
2018-02-20T00:46:54.959Z,76.74
2018-02-20T00:47:21.080Z,77.03
2018-02-20T00:47:47.173Z,76.84
2018-02-20T00:48:13.296Z,76.84
2018-02-20T00:48:39.393Z,76.65
2018-02-20T00:49:05.489Z,76.46
2018-02-20T00:49:31.592Z,76.36
2018-02-20T00:49:57.692Z,76.93
2018-02-20T00:50:23.796Z,76.93
2018-02-20T00:50:49.893Z,76.84
2018-02-20T00:51:15.995Z,77.03
2018-02-20T00:51:42.090Z,76.93
2018-02-20T00:52:08.196Z,76.93
2018-02-20T00:52:34.323Z,77.03
2018-02-20T00:53:00.409Z,76.84
2018-02-20T00:53:26.515Z,76.7
2018-02-20T00:53:52.630Z,77.27
2018-02-20T00:54:18.746Z,77.27
2018-02-20T00:54:44.843Z,77.75
2018-02-20T00:55:10.944Z,77.84
2018-02-20T00:55:37.064Z,77.56
2018-02-20T00:56:03.164Z,77.75
2018-02-20T00:56:29.271Z,77.78
2018-02-20T00:56:55.368Z,77.59
2018-02-20T00:57:21.467Z,77.97
2018-02-20T00:57:47.567Z,77.69
2018-02-20T00:58:13.685Z,77.27
2018-02-20T00:58:39.808Z,77.5
2018-02-20T00:59:05.903Z,77.5
2018-02-20T00:59:32.007Z,76.84
2018-02-20T00:59:58.107Z,77.03
2018-02-20T01:00:24.227Z,76.93
2018-02-20T01:00:50.323Z,76.74
2018-02-20T01:01:16.422Z,76.93
2018-02-20T01:01:42.526Z,76.93
2018-02-20T01:02:08.944Z,76.84
2018-02-20T01:02:35.040Z,77.12
2018-02-20T01:03:01.137Z,76.74
2018-02-20T01:03:27.232Z,76.93
2018-02-20T01:03:53.330Z,76.84
2018-02-20T01:04:19.436Z,77.03
2018-02-20T01:04:45.529Z,76.84
2018-02-20T01:05:11.632Z,76.55
2018-02-20T01:05:37.727Z,76.93
2018-02-20T01:06:03.832Z,76.74
2018-02-20T01:06:29.952Z,77.22
2018-02-20T01:06:56.048Z,77.12
2018-02-20T01:07:22.152Z,76.93
2018-02-20T01:07:48.248Z,76.65
2018-02-20T01:08:14.345Z,77.03
2018-02-20T01:08:40.447Z,76.74
2018-02-20T01:09:06.542Z,77.03
2018-02-20T01:09:32.649Z,76.74
2018-02-20T01:09:58.748Z,76.93
2018-02-20T01:10:24.843Z,76.93
2018-02-20T01:10:50.941Z,77.03
2018-02-20T01:11:17.044Z,77.12
2018-02-20T01:11:43.147Z,76.84
2018-02-20T01:12:09.238Z,77.03
2018-02-20T01:12:35.343Z,76.93
2018-02-20T01:13:01.443Z,76.8
2018-02-20T01:13:27.534Z,77.18
2018-02-20T01:13:53.640Z,77.56
2018-02-20T01:14:19.734Z,77.18
2018-02-20T01:14:45.838Z,77.18
2018-02-20T01:15:11.942Z,77.75
2018-02-20T01:15:38.034Z,77.94
2018-02-20T01:16:04.156Z,77.94
2018-02-20T01:16:30.269Z,77.94
2018-02-20T01:16:56.369Z,77.75
2018-02-20T01:17:22.470Z,77.84
2018-02-20T01:17:48.567Z,77.84
2018-02-20T01:18:14.660Z,77.84
2018-02-20T01:18:40.763Z,77.94
2018-02-20T01:19:06.859Z,78.41
2018-02-20T01:19:32.978Z,78.31
2018-02-20T01:19:59.077Z,78.22
2018-02-20T01:20:25.173Z,78.03
2018-02-20T01:20:51.275Z,78.03
2018-02-20T01:21:17.398Z,78.88
2018-02-20T01:21:43.493Z,78.41
2018-02-20T01:22:09.590Z,78.79
2018-02-20T01:22:35.687Z,78.98
2018-02-20T01:23:01.786Z,78.79
2018-02-20T01:23:27.886Z,78.98
2018-02-20T01:23:53.982Z,78.79
2018-02-20T01:24:20.085Z,78.98
2018-02-20T01:24:46.187Z,79.17
2018-02-20T01:25:12.307Z,78.98
2018-02-20T01:25:38.398Z,79.07
2018-02-20T01:26:04.501Z,78.98
2018-02-20T01:26:30.596Z,78.88
2018-02-20T01:26:56.700Z,78.98
2018-02-20T01:27:22.800Z,79.07
2018-02-20T01:27:48.894Z,78.69
2018-02-20T01:28:14.989Z,78.79
2018-02-20T01:28:41.095Z,78.59
2018-02-20T01:29:07.201Z,78.88
2018-02-20T01:29:33.305Z,78.13
2018-02-20T01:29:59.421Z,78.5
2018-02-20T01:30:25.517Z,78.5
2018-02-20T01:30:51.619Z,78.59
2018-02-20T01:31:17.716Z,78.5
2018-02-20T01:31:43.812Z,78.41
2018-02-20T01:32:09.915Z,78.31
2018-02-20T01:32:36.034Z,78.59
2018-02-20T01:33:02.132Z,78.88
2018-02-20T01:33:28.225Z,78.79
2018-02-20T01:33:54.328Z,79.26
2018-02-20T01:34:20.425Z,78.88
2018-02-20T01:34:46.538Z,78.88
2018-02-20T01:35:12.642Z,78.79
2018-02-20T01:35:38.737Z,78.98
2018-02-20T01:36:04.847Z,79.07
2018-02-20T01:36:30.954Z,79.36
2018-02-20T01:36:57.054Z,79.36
2018-02-20T01:37:23.175Z,79.26
2018-02-20T01:37:49.272Z,79.26
2018-02-20T01:38:15.374Z,79.45
2018-02-20T01:38:41.479Z,79.36
2018-02-20T01:39:07.574Z,79.45
2018-02-20T01:39:33.667Z,79.36
2018-02-20T01:39:59.771Z,79.36
2018-02-20T01:40:25.874Z,79.55
2018-02-20T01:40:51.965Z,79.55
2018-02-20T01:41:18.062Z,79.36
2018-02-20T01:41:44.166Z,79.55
2018-02-20T01:42:10.254Z,79.36
2018-02-20T01:42:36.374Z,79.36
2018-02-20T01:43:02.474Z,79.64
2018-02-20T01:43:28.578Z,79.45
2018-02-20T01:43:54.679Z,79.64
2018-02-20T01:44:20.784Z,79.36
2018-02-20T01:44:46.879Z,79.64
2018-02-20T01:45:12.984Z,79.45
2018-02-20T01:45:39.081Z,79.26
2018-02-20T01:46:05.182Z,79.93
2018-02-20T01:46:31.294Z,79.17
2018-02-20T01:46:57.393Z,79.26
2018-02-20T01:47:23.495Z,79.55
2018-02-20T01:47:49.597Z,79.45
2018-02-20T01:48:15.688Z,79.45
2018-02-20T01:48:41.793Z,79.64
2018-02-20T01:49:07.883Z,79.55
2018-02-20T01:49:33.982Z,79.64
2018-02-20T01:50:00.088Z,79.55
2018-02-20T01:50:26.190Z,79.26
2018-02-20T01:50:52.281Z,79.36
2018-02-20T01:51:18.384Z,79.64
2018-02-20T01:51:44.476Z,79.36
2018-02-20T01:52:10.577Z,79.36
2018-02-20T01:52:36.674Z,79.45
2018-02-20T01:53:02.775Z,79.74
2018-02-20T01:53:28.872Z,79.36
2018-02-20T01:53:54.973Z,78.88
2018-02-20T01:54:21.074Z,78.88
2018-02-20T01:54:47.169Z,79.07
2018-02-20T01:55:13.270Z,79.07
2018-02-20T01:55:39.367Z,78.98
2018-02-20T01:56:05.486Z,78.79
2018-02-20T01:56:31.583Z,79.07
2018-02-20T01:56:57.683Z,78.59
2018-02-20T01:57:23.776Z,78.79
2018-02-20T01:57:49.875Z,78.41
2018-02-20T01:58:15.978Z,78.5
2018-02-20T01:58:42.077Z,78.5
2018-02-20T01:59:08.177Z,78.5
2018-02-20T01:59:34.291Z,78.13
2018-02-20T02:00:00.409Z,77.94
2018-02-20T02:00:26.503Z,78.22
2018-02-20T02:00:52.602Z,78.41
2018-02-20T02:01:18.705Z,78.31
2018-02-20T02:01:44.803Z,77.75
2018-02-20T02:02:10.915Z,78.22
2018-02-20T02:02:37.002Z,77.78
2018-02-20T02:03:03.094Z,78.31
2018-02-20T02:03:29.198Z,78.31
2018-02-20T02:03:55.302Z,77.65
2018-02-20T02:04:21.395Z,77.78
2018-02-20T02:04:47.493Z,77.88
2018-02-20T02:05:13.597Z,77.78
2018-02-20T02:05:39.691Z,77.78
2018-02-20T02:06:05.788Z,77.75
2018-02-20T02:06:31.894Z,77.88
2018-02-20T02:06:57.998Z,77.56
2018-02-20T02:07:24.101Z,77.22
2018-02-20T02:07:50.200Z,77.31
2018-02-20T02:08:16.300Z,77.03
2018-02-20T02:08:42.404Z,77.31
2018-02-20T02:09:08.502Z,77.22
2018-02-20T02:09:34.602Z,77.12
2018-02-20T02:10:00.707Z,77.18
2018-02-20T02:10:26.804Z,77.03
2018-02-20T02:10:52.901Z,77.03
2018-02-20T02:11:19.003Z,77.03
2018-02-20T02:11:45.100Z,77.4
2018-02-20T02:12:11.198Z,77.22
2018-02-20T02:12:37.312Z,77.4
2018-02-20T02:13:03.408Z,77.5
2018-02-20T02:13:29.517Z,77.22
2018-02-20T02:13:55.620Z,77.22
2018-02-20T02:14:21.718Z,77.22
2018-02-20T02:14:47.814Z,77.59
2018-02-20T02:15:13.917Z,77.22
2018-02-20T02:15:40.034Z,77.4
2018-02-20T02:16:06.150Z,77.22
2018-02-20T02:16:32.244Z,77.22
2018-02-20T02:16:58.342Z,77.4
2018-02-20T02:17:24.444Z,77.4
2018-02-20T02:17:50.545Z,77.5
2018-02-20T02:18:16.658Z,77.4
2018-02-20T02:18:42.778Z,77.46
2018-02-20T02:19:08.870Z,77.4
2018-02-20T02:19:34.971Z,77.31
2018-02-20T02:20:01.068Z,77.69
2018-02-20T02:20:27.167Z,77.5
2018-02-20T02:20:53.266Z,77.59
2018-02-20T02:21:19.366Z,77.22
2018-02-20T02:21:45.485Z,76.84
2018-02-20T02:22:11.579Z,76.74
2018-02-20T02:22:37.693Z,76.84
2018-02-20T02:23:03.782Z,77.03
2018-02-20T02:23:29.881Z,76.93
2018-02-20T02:23:55.991Z,76.84
2018-02-20T02:24:22.082Z,76.74
2018-02-20T02:24:48.178Z,76.65
2018-02-20T02:25:14.281Z,76.93
2018-02-20T02:25:40.379Z,76.84
2018-02-20T02:26:06.505Z,76.74
2018-02-20T02:26:32.604Z,76.93
2018-02-20T02:26:58.724Z,76.84
2018-02-20T02:27:24.825Z,76.55
2018-02-20T02:27:50.926Z,76.65
2018-02-20T02:28:17.027Z,76.7
2018-02-20T02:28:43.126Z,76.84
2018-02-20T02:29:09.231Z,76.99
2018-02-20T02:29:35.323Z,77.03
2018-02-20T02:30:01.427Z,76.61
2018-02-20T02:30:27.529Z,76.84
2018-02-20T02:30:53.632Z,77.59
2018-02-20T02:31:19.748Z,77.31
2018-02-20T02:31:45.844Z,77.4
2018-02-20T02:32:11.947Z,76.93
2018-02-20T02:32:38.047Z,77.12
2018-02-20T02:33:04.151Z,77.31
2018-02-20T02:33:30.247Z,76.74
2018-02-20T02:33:56.346Z,77.31
2018-02-20T02:34:22.462Z,76.74
2018-02-20T02:34:48.582Z,76.74
2018-02-20T02:35:14.683Z,76.74
2018-02-20T02:35:40.784Z,76.74
2018-02-20T02:36:06.875Z,76.7
2018-02-20T02:36:32.979Z,76.84
2018-02-20T02:36:59.086Z,76.93
2018-02-20T02:37:25.174Z,76.84
2018-02-20T02:37:51.268Z,76.74
2018-02-20T02:38:17.367Z,76.65
2018-02-20T02:38:43.463Z,76.93
2018-02-20T02:39:09.567Z,77.12
2018-02-20T02:39:35.666Z,76.84
2018-02-20T02:40:01.761Z,76.7
2018-02-20T02:40:27.863Z,77.12
2018-02-20T02:40:53.957Z,76.74
2018-02-20T02:41:20.058Z,76.84
2018-02-20T02:41:46.162Z,76.84
2018-02-20T02:42:12.263Z,76.65
2018-02-20T02:42:38.356Z,76.61
2018-02-20T02:43:04.456Z,76.89
2018-02-20T02:43:30.579Z,77.56
2018-02-20T02:43:56.674Z,77.56
2018-02-20T02:44:22.777Z,77.18
2018-02-20T02:44:48.876Z,77.08
2018-02-20T02:45:14.979Z,77.27
2018-02-20T02:45:41.078Z,77.75
2018-02-20T02:46:07.171Z,77.56
2018-02-20T02:46:33.295Z,77.56
2018-02-20T02:46:59.424Z,77.84
2018-02-20T02:47:25.522Z,77.56
2018-02-20T02:47:51.624Z,77.65
2018-02-20T02:48:17.737Z,77.94
2018-02-20T02:48:43.841Z,77.84
2018-02-20T02:49:09.944Z,77.56
2018-02-20T02:49:36.038Z,78.03
2018-02-20T02:50:02.141Z,77.94
2018-02-20T02:50:28.237Z,77.84
2018-02-20T02:50:54.360Z,77.84
2018-02-20T02:51:20.453Z,77.84
2018-02-20T02:51:46.557Z,77.65
2018-02-20T02:52:12.651Z,77.75
2018-02-20T02:52:38.754Z,77.94
2018-02-20T02:53:04.867Z,77.65
2018-02-20T02:53:30.963Z,78.13
2018-02-20T02:53:57.064Z,77.84
2018-02-20T02:54:23.166Z,77.65
2018-02-20T02:54:49.263Z,77.75
2018-02-20T02:55:15.366Z,78.5
2018-02-20T02:55:41.478Z,77.84
2018-02-20T02:56:07.592Z,78.5
2018-02-20T02:56:33.684Z,78.59
2018-02-20T02:56:59.784Z,78.31
2018-02-20T02:57:25.885Z,78.5
2018-02-20T02:57:51.998Z,78.5
2018-02-20T02:58:18.114Z,78.5
2018-02-20T02:58:44.220Z,78.31
2018-02-20T02:59:10.328Z,78.22
2018-02-20T02:59:36.418Z,78.22
2018-02-20T03:00:02.523Z,78.13
2018-02-20T03:00:28.618Z,78.59
2018-02-20T03:00:54.719Z,78.69
2018-02-20T03:01:20.825Z,78.59
2018-02-20T03:01:46.922Z,78.41
2018-02-20T03:02:13.035Z,78.31
2018-02-20T03:02:39.129Z,78.79
2018-02-20T03:03:05.224Z,78.31
2018-02-20T03:03:31.333Z,78.41
2018-02-20T03:03:57.431Z,78.88
2018-02-20T03:04:23.538Z,79.26
2018-02-20T03:04:49.659Z,78.98
2018-02-20T03:05:15.755Z,78.88
2018-02-20T03:05:41.859Z,78.69
2018-02-20T03:06:07.955Z,78.69
2018-02-20T03:06:34.068Z,78.13
2018-02-20T03:07:00.171Z,78.59
2018-02-20T03:07:26.266Z,78.69
2018-02-20T03:07:52.368Z,78.79
2018-02-20T03:08:18.469Z,78.59
2018-02-20T03:08:44.566Z,78.5
2018-02-20T03:09:10.667Z,77.94
2018-02-20T03:09:36.766Z,78.22
2018-02-20T03:10:02.867Z,78.31
2018-02-20T03:10:28.961Z,78.13
2018-02-20T03:10:55.066Z,78.13
2018-02-20T03:11:21.157Z,78.31
2018-02-20T03:11:47.252Z,78.31
2018-02-20T03:12:13.354Z,77.65
2018-02-20T03:12:39.451Z,77.75
2018-02-20T03:13:05.554Z,77.75
2018-02-20T03:13:31.647Z,77.56
2018-02-20T03:13:57.769Z,77.75
2018-02-20T03:14:23.871Z,77.46
2018-02-20T03:14:49.967Z,77.56
2018-02-20T03:15:16.070Z,77.75
2018-02-20T03:15:42.164Z,77.56
2018-02-20T03:16:08.262Z,77.84
2018-02-20T03:16:34.372Z,77.84
2018-02-20T03:17:00.461Z,77.84
2018-02-20T03:17:26.564Z,77.65
2018-02-20T03:17:52.666Z,77.75
2018-02-20T03:18:18.760Z,77.94
2018-02-20T03:18:44.862Z,77.84
2018-02-20T03:19:10.961Z,77.56
2018-02-20T03:19:37.057Z,78.13
2018-02-20T03:20:03.175Z,77.75
2018-02-20T03:20:29.291Z,77.56
2018-02-20T03:20:55.392Z,77.65
2018-02-20T03:21:21.492Z,77.56
2018-02-20T03:21:47.592Z,77.75
2018-02-20T03:22:13.687Z,77.65
2018-02-20T03:22:39.788Z,77.56
2018-02-20T03:23:05.886Z,77.84
2018-02-20T03:23:31.979Z,77.84
2018-02-20T03:23:58.100Z,77.84
2018-02-20T03:24:24.195Z,77.75
2018-02-20T03:24:50.317Z,77.65
2018-02-20T03:25:16.420Z,78.22
2018-02-20T03:25:42.518Z,78.31
2018-02-20T03:26:08.614Z,78.41
2018-02-20T03:26:34.709Z,78.13
2018-02-20T03:27:00.809Z,78.03
2018-02-20T03:27:26.909Z,78.31
2018-02-20T03:27:53.008Z,78.22
2018-02-20T03:28:19.108Z,78.13
2018-02-20T03:28:45.201Z,78.03
2018-02-20T03:29:11.299Z,78.5
2018-02-20T03:29:37.399Z,78.41
2018-02-20T03:30:03.504Z,79.17
2018-02-20T03:30:29.604Z,78.88
2018-02-20T03:30:55.700Z,78.88
2018-02-20T03:31:21.802Z,78.98
2018-02-20T03:31:47.916Z,79.55
2018-02-20T03:32:14.012Z,79.17
2018-02-20T03:32:40.108Z,79.26
2018-02-20T03:33:06.214Z,78.88
2018-02-20T03:33:32.304Z,78.79
2018-02-20T03:33:58.406Z,79.07
2018-02-20T03:34:24.513Z,79.36
2018-02-20T03:34:50.604Z,79.17
2018-02-20T03:35:16.731Z,79.17
2018-02-20T03:35:42.824Z,78.88
2018-02-20T03:36:08.926Z,79.26
2018-02-20T03:36:35.037Z,78.88
2018-02-20T03:37:01.133Z,78.79
2018-02-20T03:37:27.234Z,78.88
2018-02-20T03:37:53.337Z,78.88
2018-02-20T03:38:19.433Z,79.36
2018-02-20T03:38:45.537Z,78.88
2018-02-20T03:39:11.651Z,78.98
2018-02-20T03:39:37.743Z,79.36
2018-02-20T03:40:03.846Z,79.36
2018-02-20T03:40:29.945Z,79.45
2018-02-20T03:40:56.040Z,79.26
2018-02-20T03:41:22.139Z,79.26
2018-02-20T03:41:48.232Z,79.36
2018-02-20T03:42:14.326Z,79.55
2018-02-20T03:42:40.433Z,79.55
2018-02-20T03:43:06.527Z,79.55
2018-02-20T03:43:32.625Z,79.26
2018-02-20T03:43:58.735Z,79.55
2018-02-20T03:44:24.833Z,79.45
2018-02-20T03:44:50.930Z,79.36
2018-02-20T03:45:17.042Z,79.55
2018-02-20T03:45:43.135Z,79.55
2018-02-20T03:46:09.238Z,79.45
2018-02-20T03:46:35.332Z,79.45
2018-02-20T03:47:01.428Z,79.45
2018-02-20T03:47:27.528Z,79.45
2018-02-20T03:47:53.646Z,79.45
2018-02-20T03:48:19.739Z,79.64
2018-02-20T03:48:45.845Z,79.45
2018-02-20T03:49:11.945Z,79.26
2018-02-20T03:49:38.039Z,79.26
2018-02-20T03:50:04.143Z,79.55
2018-02-20T03:50:30.244Z,79.36
2018-02-20T03:50:56.344Z,79.26
2018-02-20T03:51:22.445Z,79.26
2018-02-20T03:51:48.546Z,79.36
2018-02-20T03:52:14.641Z,78.79
2018-02-20T03:52:40.742Z,79.17
2018-02-20T03:53:06.842Z,78.65
2018-02-20T03:53:32.957Z,79.41
2018-02-20T03:53:59.068Z,79.32
2018-02-20T03:54:25.157Z,79.55
2018-02-20T03:54:51.251Z,79.36
2018-02-20T03:55:17.357Z,79.07
2018-02-20T03:55:43.451Z,79.17
2018-02-20T03:56:09.548Z,79.45
2018-02-20T03:56:35.658Z,79.22
2018-02-20T03:57:01.766Z,79.22
2018-02-20T03:57:27.868Z,79.22
2018-02-20T03:57:53.966Z,79.41
2018-02-20T03:58:20.068Z,79.32
2018-02-20T03:58:46.165Z,79.13
2018-02-20T03:59:12.289Z,79.69
2018-02-20T03:59:38.390Z,79.22
2018-02-20T04:00:04.487Z,79.6
2018-02-20T04:00:30.588Z,79.98
2018-02-20T04:00:56.690Z,79.98
2018-02-20T04:01:22.792Z,79.69
2018-02-20T04:01:48.911Z,79.69
2018-02-20T04:02:15.009Z,79.41
2018-02-20T04:02:41.112Z,79.41
2018-02-20T04:03:07.214Z,79.5
2018-02-20T04:03:33.308Z,79.79
2018-02-20T04:03:59.410Z,79.79
2018-02-20T04:04:25.509Z,79.79
2018-02-20T04:04:51.610Z,79.88
2018-02-20T04:05:17.710Z,79.88
2018-02-20T04:05:43.803Z,79.6
2018-02-20T04:06:09.908Z,79.69
2018-02-20T04:06:36.024Z,80.55
2018-02-20T04:07:02.123Z,79.98
2018-02-20T04:07:28.228Z,80.83
2018-02-20T04:07:54.321Z,80.55
2018-02-20T04:08:20.423Z,80.83
2018-02-20T04:08:46.523Z,80.74
2018-02-20T04:09:12.624Z,80.55
2018-02-20T04:09:38.718Z,80.64
2018-02-20T04:10:04.820Z,80.74
2018-02-20T04:10:30.910Z,80.74
2018-02-20T04:10:57.008Z,80.36
2018-02-20T04:11:23.107Z,80.36
2018-02-20T04:11:49.204Z,79.88
2018-02-20T04:12:15.307Z,80.07
2018-02-20T04:12:41.403Z,80.17
2018-02-20T04:13:07.501Z,80.07
2018-02-20T04:13:33.605Z,79.98
2018-02-20T04:13:59.701Z,80.17
2018-02-20T04:14:25.799Z,80.55
2018-02-20T04:14:51.903Z,80.55
2018-02-20T04:15:18.010Z,80.55
2018-02-20T04:15:44.126Z,80.55
2018-02-20T04:16:10.224Z,80.36
2018-02-20T04:16:36.319Z,80.36
2018-02-20T04:17:02.420Z,80.45
2018-02-20T04:17:28.515Z,80.55
2018-02-20T04:17:54.619Z,80.83
2018-02-20T04:18:20.714Z,80.36
2018-02-20T04:18:46.808Z,80.17
2018-02-20T04:19:12.915Z,80.07
2018-02-20T04:19:39.012Z,80.17
2018-02-20T04:20:05.116Z,80.26
2018-02-20T04:20:31.210Z,80.26
2018-02-20T04:20:57.316Z,79.79
2018-02-20T04:21:23.415Z,80.07
2018-02-20T04:21:49.509Z,80.17
2018-02-20T04:22:15.613Z,80.17
2018-02-20T04:22:41.707Z,79.98
2018-02-20T04:23:07.807Z,80.17
2018-02-20T04:23:33.910Z,80.64
2018-02-20T04:24:00.003Z,80.36
2018-02-20T04:24:26.104Z,80.93
2018-02-20T04:24:52.208Z,80.83
2018-02-20T04:25:18.293Z,80.74
2018-02-20T04:25:44.413Z,80.45
2018-02-20T04:26:10.513Z,80.55
2018-02-20T04:26:36.613Z,80.83
2018-02-20T04:27:02.717Z,80.36
2018-02-20T04:27:28.815Z,80.55
2018-02-20T04:27:54.908Z,80.64
2018-02-20T04:28:21.002Z,81.02
2018-02-20T04:28:47.099Z,80.55
2018-02-20T04:29:13.204Z,81.21
2018-02-20T04:29:39.302Z,80.55
2018-02-20T04:30:05.401Z,81.02
2018-02-20T04:30:31.505Z,81.02
2018-02-20T04:30:57.593Z,81.21
2018-02-20T04:31:23.742Z,80.83
2018-02-20T04:31:49.795Z,81.12
2018-02-20T04:32:15.901Z,80.83
2018-02-20T04:32:41.995Z,80.93
2018-02-20T04:33:08.091Z,80.93
2018-02-20T04:33:34.190Z,81.02
2018-02-20T04:34:00.288Z,80.74
2018-02-20T04:34:26.382Z,81.02
2018-02-20T04:34:52.486Z,81.12
2018-02-20T04:35:18.582Z,80.74
2018-02-20T04:35:44.689Z,80.64
2018-02-20T04:36:10.790Z,81.12
2018-02-20T04:36:36.904Z,80.83
2018-02-20T04:37:03.019Z,80.93
2018-02-20T04:37:29.134Z,80.83
2018-02-20T04:37:55.230Z,80.74
2018-02-20T04:38:21.335Z,81.21
2018-02-20T04:38:47.436Z,81.12
2018-02-20T04:39:13.534Z,80.45
2018-02-20T04:39:39.634Z,80.36
2018-02-20T04:40:05.730Z,80.36
2018-02-20T04:40:31.829Z,80.55
2018-02-20T04:40:57.924Z,80.45
2018-02-20T04:41:24.029Z,80.55
2018-02-20T04:41:50.125Z,80.36
2018-02-20T04:42:16.228Z,80.74
2018-02-20T04:42:42.321Z,80.83
2018-02-20T04:43:08.433Z,81.12
2018-02-20T04:43:34.522Z,80.83
2018-02-20T04:44:00.614Z,81.02
2018-02-20T04:44:26.718Z,80.83
2018-02-20T04:44:52.818Z,81.12
2018-02-20T04:45:18.912Z,80.55
2018-02-20T04:45:45.011Z,80.55
2018-02-20T04:46:11.109Z,80.74
2018-02-20T04:46:37.206Z,80.36
2018-02-20T04:47:03.311Z,79.88
2018-02-20T04:47:29.407Z,79.98
2018-02-20T04:47:55.503Z,80.07
2018-02-20T04:48:21.599Z,80.17
2018-02-20T04:48:47.700Z,79.98
2018-02-20T04:49:13.800Z,80.21
2018-02-20T04:49:39.905Z,80.3
2018-02-20T04:50:06.008Z,80.11
2018-02-20T04:50:32.104Z,79.55
2018-02-20T04:50:58.202Z,79.64
2018-02-20T04:51:24.305Z,79.55
2018-02-20T04:51:50.407Z,79.55
2018-02-20T04:52:16.501Z,79.74
2018-02-20T04:52:42.606Z,79.83
2018-02-20T04:53:08.700Z,79.74
2018-02-20T04:53:34.797Z,79.45
2018-02-20T04:54:00.895Z,79.64
2018-02-20T04:54:26.997Z,79.45
2018-02-20T04:54:53.098Z,79.26
2018-02-20T04:55:19.195Z,79.55
2018-02-20T04:55:45.296Z,79.26
2018-02-20T04:56:11.395Z,79.36
2018-02-20T04:56:37.493Z,79.36
2018-02-20T04:57:03.593Z,79.17
2018-02-20T04:57:29.693Z,79.36
2018-02-20T04:57:55.792Z,78.69
2018-02-20T04:58:21.895Z,78.59
2018-02-20T04:58:47.995Z,78.88
2018-02-20T04:59:14.088Z,78.79
2018-02-20T04:59:40.185Z,78.79
2018-02-20T05:00:06.286Z,78.88
2018-02-20T05:00:32.383Z,78.98
2018-02-20T05:00:58.505Z,78.79
2018-02-20T05:01:24.607Z,79.07
2018-02-20T05:01:50.700Z,78.98
2018-02-20T05:02:16.801Z,78.88
2018-02-20T05:02:42.898Z,78.79
2018-02-20T05:03:08.996Z,78.88
2018-02-20T05:03:35.099Z,78.88
2018-02-20T05:04:01.194Z,78.98
2018-02-20T05:04:27.296Z,79.07
2018-02-20T05:04:53.389Z,78.88
2018-02-20T05:05:19.492Z,79.55
2018-02-20T05:05:45.595Z,79.36
2018-02-20T05:06:11.705Z,78.79
2018-02-20T05:06:37.805Z,79.45
2018-02-20T05:07:03.906Z,79.45
2018-02-20T05:07:29.998Z,79.45
2018-02-20T05:07:56.101Z,79.36
2018-02-20T05:08:22.204Z,79.64
2018-02-20T05:08:48.300Z,79.36
2018-02-20T05:09:14.399Z,79.64
2018-02-20T05:09:40.499Z,79.45
2018-02-20T05:10:06.599Z,79.26
2018-02-20T05:10:32.692Z,79.26
2018-02-20T05:10:58.796Z,79.17
2018-02-20T05:11:24.921Z,79.36
2018-02-20T05:11:51.012Z,79.45
2018-02-20T05:12:17.108Z,79.64
2018-02-20T05:12:43.212Z,79.55
2018-02-20T05:13:09.303Z,79.26
2018-02-20T05:13:35.399Z,79.36
2018-02-20T05:14:01.499Z,79.07
2018-02-20T05:14:27.614Z,79.26
2018-02-20T05:14:53.719Z,79.07
2018-02-20T05:15:19.816Z,79.36
2018-02-20T05:15:45.920Z,79.83
2018-02-20T05:16:12.015Z,79.45
2018-02-20T05:16:38.114Z,79.45
2018-02-20T05:17:04.215Z,78.98
2018-02-20T05:17:30.315Z,79.55
2018-02-20T05:17:56.410Z,79.17
2018-02-20T05:18:22.509Z,79.45
2018-02-20T05:18:48.604Z,79.26
2018-02-20T05:19:14.713Z,79.5
2018-02-20T05:19:40.815Z,79.83
2018-02-20T05:20:06.908Z,79.55
2018-02-20T05:20:33.013Z,79.93
2018-02-20T05:20:59.114Z,79.93
2018-02-20T05:21:25.209Z,79.74
2018-02-20T05:21:51.311Z,79.45
2018-02-20T05:22:17.414Z,79.93
2018-02-20T05:22:43.507Z,79.83
2018-02-20T05:23:09.605Z,79.98
2018-02-20T05:23:35.710Z,79.79
2018-02-20T05:24:01.809Z,79.83
2018-02-20T05:24:27.906Z,79.93
2018-02-20T05:24:54.026Z,79.83
2018-02-20T05:25:20.121Z,79.26
2018-02-20T05:25:46.239Z,79.26
2018-02-20T05:26:12.334Z,79.36
2018-02-20T05:26:38.435Z,79.45
2018-02-20T05:27:04.531Z,79.55
2018-02-20T05:27:30.653Z,79.36
2018-02-20T05:27:56.754Z,79.41
2018-02-20T05:28:22.848Z,79.36
2018-02-20T05:28:48.950Z,79.13
2018-02-20T05:29:15.043Z,79.17
2018-02-20T05:29:41.147Z,79.13
2018-02-20T05:30:07.248Z,79.5
2018-02-20T05:30:33.343Z,79.79
2018-02-20T05:30:59.446Z,79.5
2018-02-20T05:31:25.543Z,79.5
2018-02-20T05:31:51.640Z,79.79
2018-02-20T05:32:17.742Z,80.02
2018-02-20T05:32:43.836Z,79.88
2018-02-20T05:33:09.931Z,79.88
2018-02-20T05:33:36.053Z,79.98
2018-02-20T05:34:02.146Z,79.17
2018-02-20T05:34:28.244Z,79.17
2018-02-20T05:34:54.351Z,79.32
2018-02-20T05:35:20.454Z,79.32
2018-02-20T05:35:46.575Z,79.41
2018-02-20T05:36:12.674Z,79.41
2018-02-20T05:36:38.768Z,79.88
2018-02-20T05:37:04.866Z,79.5